Weather at Majors Airport

Public forecast

Using degrees Fahrenheit for public forecast. Weather courtesy of forecast.io.

Current aviation weather report (METAR) for Majors Airport

Retrieved 2021/08/04 06:15 UTC (3 minutes ago):

KGVT 040615Z AUTO 00000KT 7SM BR CLR 23/22 A3002 RMK AO2 TSNO T02270216

Closest aviation forecast (TAF) to Majors Airport

Closest forecast is Dallas Love Field, 41.8 nm (77.4 km) WSW. Retrieved 2021/08/04 06:24 UTC (0 seconds ago):

TAF KDAL 040523Z 0406/0506 11005KT P6SM SCT060 SCT200 FM041600 12006KT P6SM FEW035 FEW200